createdAt,value
2023-05-13T00:00:02.413Z,0
2023-05-13T00:15:59.491Z,0
2023-05-13T00:31:01.539Z,0
2023-05-13T00:46:03.875Z,0
2023-05-13T01:00:00.703Z,0
2023-05-13T01:16:03.093Z,0
2023-05-13T01:31:00.570Z,0
2023-05-13T01:46:02.472Z,0
2023-05-13T01:59:59.633Z,0
2023-05-13T02:16:01.955Z,0
2023-05-13T02:31:04.236Z,0
2023-05-13T02:46:01.401Z,0
2023-05-13T03:00:03.206Z,0
2023-05-13T03:16:00.360Z,0
2023-05-13T03:31:02.419Z,0
2023-05-13T03:46:04.254Z,0
2023-05-13T04:00:01.326Z,3
2023-05-13T04:16:03.621Z,9
2023-05-13T04:31:00.784Z,14
2023-05-13T04:46:03.170Z,16
2023-05-13T05:00:00.194Z,24
2023-05-13T05:16:02.664Z,28
2023-05-13T05:30:59.753Z,42
2023-05-13T05:46:01.953Z,59
2023-05-13T06:00:03.735Z,61
2023-05-13T06:16:01.321Z,88
2023-05-13T06:31:03.320Z,109
2023-05-13T06:46:00.510Z,146
2023-05-13T07:00:02.410Z,176
2023-05-13T07:15:59.916Z,223
2023-05-13T07:31:01.836Z,220
2023-05-13T07:46:04.018Z,258
2023-05-13T08:00:00.883Z,282
2023-05-13T08:16:03.239Z,409
2023-05-13T08:31:00.390Z,365
2023-05-13T08:46:02.530Z,375
2023-05-13T08:59:59.425Z,492
2023-05-13T09:16:01.954Z,469
2023-05-13T09:30:59.433Z,418
2023-05-13T09:46:01.397Z,499
2023-05-13T10:00:03.418Z,383
2023-05-13T10:16:00.768Z,349
2023-05-13T10:31:03.037Z,396
2023-05-13T10:46:00.296Z,371
2023-05-13T11:00:02.326Z,406
2023-05-13T11:15:59.779Z,474
2023-05-13T11:31:02.071Z,360
2023-05-13T11:45:59.244Z,300
2023-05-13T12:00:01.165Z,351
2023-05-13T12:16:03.458Z,342
2023-05-13T12:31:00.635Z,497
2023-05-13T12:46:02.893Z,634
2023-05-13T12:59:59.960Z,730
2023-05-13T13:16:02.245Z,551
2023-05-13T13:30:59.410Z,520
2023-05-13T13:46:01.550Z,368
2023-05-13T14:00:03.574Z,273
2023-05-13T14:16:01.011Z,296
2023-05-13T14:31:03.192Z,361
2023-05-13T14:46:00.343Z,352
2023-05-13T15:00:02.408Z,335
2023-05-13T15:15:59.804Z,560
2023-05-13T15:31:03.527Z,436
2023-05-13T15:45:59.384Z,223
2023-05-13T16:00:01.355Z,169
2023-05-13T16:16:03.674Z,204
2023-05-13T16:31:00.974Z,202
2023-05-13T16:46:03.034Z,279
2023-05-13T17:00:05.010Z,193
2023-05-13T17:16:02.319Z,72
2023-05-13T17:31:04.545Z,43
2023-05-13T17:46:01.646Z,39
2023-05-13T18:00:03.898Z,21
2023-05-13T18:16:01.329Z,2
2023-05-13T18:31:03.251Z,0
2023-05-13T18:46:00.491Z,0
2023-05-13T19:00:02.513Z,0
2023-05-13T19:16:04.896Z,0
2023-05-13T19:31:02.371Z,0
2023-05-13T19:46:04.565Z,0
2023-05-13T20:00:01.397Z,0
2023-05-13T20:16:03.794Z,0
2023-05-13T20:31:00.917Z,0
2023-05-13T20:46:03.172Z,0
2023-05-13T21:00:05.019Z,0
2023-05-13T21:16:02.548Z,0
2023-05-13T21:31:04.613Z,0
2023-05-13T21:46:01.586Z,0
2023-05-13T22:00:03.670Z,0
2023-05-13T22:16:01.257Z,0
2023-05-13T22:31:03.202Z,0
2023-05-13T22:46:00.479Z,0
2023-05-13T23:00:02.402Z,0
2023-05-13T23:16:04.738Z,0
2023-05-13T23:31:01.798Z,0
2023-05-13T23:46:03.999Z,0
